Airfield :
LOGIN :

Register | Disclaimer

   EN    FR    IT 

 










Legend :    VFR   Marginal VFR   IFR   Intensive IFR   Very Intensive IFR
Visi :
Ceiling :
>= 8 km
>= 3000ft
5 to 8 km
1000 to 3000 ft
1500m to 5 km
500 to 1000 ft
800 to 1500m
200 to 500 ft
< 800m
< 200 ft
Symbols :   Thunderstorms  Fog  Heavy snow  Heavy precipitations  Wind > 20 kt
SIGMETs :     Misc.  Thunderstorms  Icing  Turbulence  Mountain Waves  Volcanic Ashes






- Airport Elevation : 499 ft
- IATA code : TLS


LFBO - Toulouse / Blagnac

CURRENT METAR :
  • 260600Z AUTO 26016KT 9999 -RA FEW014 OVC052 09/08 Q1011 TEMPO 4000 RA BKN010 OVC030

EXPIRED METARs :
  • 260530Z AUTO 25011KT 9999 -RA NSC 10/08 Q1010 TEMPO 4000 SHRA BECMG FEW020 SCT030TCU BKN045
  • 260500Z AUTO 25011KT 9999 FEW016 BKN052 OVC064 10/08 Q1010 TEMPO 4000 SHRA BKN025TCU
  • 260430Z AUTO 24010KT 9999 SCT016 OVC049 10/09 Q1010 BECMG SCT030TCU
  • 260400Z AUTO 23010KT CAVOK 10/09 Q1010 TEMPO 4000 SHRA BECMG 29010KT SCT030TCU
  • 260330Z AUTO 23010KT 9999 -RA ///TCU 10/09 Q1010 TEMPO 4000 SHRA BECMG 29010KT

TAF TAF LFBO
Valid from the 26 at 06:00 until the 27 at 12:00 UTC


260500Z 2606/2712 27010KT 9999 FEW020 OVC040
TEMPO 2606/2609 4000 RA BKN010 OVC030
BECMG 2609/2610 SCT020 SCT030TCU
TEMPO 2610/2614 30016G26KT SHRA SCT018 SCT030TCU
BECMG 2615/2617 BKN040
BECMG 2707/2709 CAVOK
ATIS : +33 5 62 74 66 36



MET'MAP, your aeronautical weather chart ! - Copyright ORBIFLY December 2007 - Disclaimer

ORBIFLY MET'MAP TEAM :

Programming & Development : Alexandra Zaïnal
Concept & original design : Baudouin d'Aumeries
Assistance for programming : Marc-Olivier Méhu
Technical & hardware support : Manuel Goepfert

Contact : metmap@orbifly.com




SOURCES & CREDITS :

   NOAA